Time;durP1;ratioP1;P1;durP2;ratioP2;P2;SDS_P1;SDS_P2;PMS_P1;PMS_P2;Temp;Humidity;BMP_temperature;BMP_pressure;BME280_temperature;BME280_humidity;BME280_pressure;Samples;Min_cycle;Max_cycle;Signal;HPM_P1;HPM_P2
2023/06/04 00:01:37;;;;;;;2.77;1.70;;;17.30;43.90;;;;;;5053310;28;20974;-56
2023/06/04 00:04:03;;;;;;;2.63;1.60;;;17.20;43.90;;;;;;5053516;28;20886;-56
2023/06/04 00:06:30;;;;;;;2.40;1.30;;;17.20;44.10;;;;;;5053277;28;20500;-56
2023/06/04 00:08:57;;;;;;;1.37;1.20;;;17.10;44.00;;;;;;5053434;28;20446;-56
2023/06/04 00:11:26;;;;;;;1.50;1.40;;;17.00;44.60;;;;;;5053351;28;20457;-56
2023/06/04 00:13:53;;;;;;;1.93;1.70;;;16.90;45.00;;;;;;5053401;28;20453;-56
2023/06/04 00:16:19;;;;;;;2.17;1.47;;;16.70;45.10;;;;;;5053016;28;20462;-56
2023/06/04 00:18:46;;;;;;;1.63;1.30;;;16.60;45.10;;;;;;5053127;28;20939;-56
2023/06/04 00:21:13;;;;;;;1.83;1.37;;;16.50;45.30;;;;;;5052941;28;20457;-56
2023/06/04 00:23:39;;;;;;;1.73;1.30;;;16.50;45.40;;;;;;5053272;28;20446;-56
2023/06/04 00:26:06;;;;;;;1.87;1.57;;;16.40;45.50;;;;;;5053077;28;20497;-57
2023/06/04 00:28:34;;;;;;;2.87;1.43;;;16.30;45.80;;;;;;5052923;28;20967;-56
2023/06/04 00:31:01;;;;;;;1.37;1.27;;;16.30;46.00;;;;;;5053223;28;20454;-56
2023/06/04 00:33:27;;;;;;;2.30;1.53;;;16.30;46.20;;;;;;5053145;28;20453;-56
2023/06/04 00:35:54;;;;;;;2.00;1.60;;;16.20;46.50;;;;;;5053178;28;20474;-56
2023/06/04 00:38:21;;;;;;;2.50;1.60;;;16.20;46.60;;;;;;5052767;28;20971;-56
2023/06/04 00:40:47;;;;;;;1.43;1.30;;;16.10;46.70;;;;;;5052816;28;20445;-56
2023/06/04 00:43:14;;;;;;;2.93;1.63;;;16.10;46.80;;;;;;5053312;28;20531;-56
2023/06/04 00:45:43;;;;;;;3.50;1.83;;;16.10;46.80;;;;;;5052965;28;20517;-56
2023/06/04 00:48:10;;;;;;;3.37;1.70;;;16.00;46.80;;;;;;5052736;28;20943;-56
2023/06/04 00:50:38;;;;;;;3.00;2.33;;;16.00;46.90;;;;;;5053149;28;20456;-56
2023/06/04 00:53:05;;;;;;;1.73;1.63;;;16.00;47.10;;;;;;5052763;28;20457;-56
2023/06/04 00:55:32;;;;;;;2.07;1.80;;;15.90;47.00;;;;;;5052947;28;20462;-56
2023/06/04 00:58:00;;;;;;;1.90;1.63;;;15.90;47.20;;;;;;5053276;28;20449;-56
2023/06/04 01:00:27;;;;;;;2.77;1.53;;;15.80;47.20;;;;;;5052974;28;20894;-56
2023/06/04 01:02:58;;;;;;;1.80;1.70;;;15.80;47.50;;;;;;5053204;28;20615;-56
2023/06/04 01:05:30;;;;;;;1.73;1.63;;;15.80;47.80;;;;;;5052911;28;20564;-56
2023/06/04 01:07:58;;;;;;;4.20;1.60;;;15.70;47.90;;;;;;5053093;28;20430;-56
2023/06/04 01:10:25;;;;;;;1.83;1.20;;;15.70;47.90;;;;;;5053122;28;20453;-56
2023/06/04 01:12:52;;;;;;;1.93;1.63;;;15.70;47.90;;;;;;5052458;28;20461;-56
2023/06/04 01:15:19;;;;;;;3.83;1.33;;;15.70;48.20;;;;;;5052420;28;20997;-56
2023/06/04 01:17:51;;;;;;;2.30;2.10;;;15.70;48.20;;;;;;5052872;28;20438;-56
2023/06/04 01:20:28;;;;;;;3.33;1.87;;;15.60;48.30;;;;;;5052456;28;20430;-56
2023/06/04 01:23:15;;;;;;;2.77;1.60;;;15.60;48.00;;;;;;5053696;28;20426;-56
2023/06/04 01:25:45;;;;;;;2.00;1.80;;;15.60;48.30;;;;;;5053030;28;20496;-56
2023/06/04 01:28:15;;;;;;;2.77;1.80;;;15.60;48.50;;;;;;5052731;28;20454;-56
2023/06/04 01:30:45;;;;;;;1.87;1.67;;;15.60;48.70;;;;;;5052810;28;20483;-56
2023/06/04 01:33:14;;;;;;;5.00;2.00;;;15.50;48.70;;;;;;5055256;28;20503;-56
2023/06/04 01:35:42;;;;;;;3.70;1.87;;;15.50;48.70;;;;;;5056136;28;20465;-56
2023/06/04 01:38:09;;;;;;;1.77;1.40;;;15.40;48.80;;;;;;5056192;28;20472;-56
2023/06/04 01:40:36;;;;;;;3.53;1.80;;;15.40;49.10;;;;;;5056199;28;20461;-56
2023/06/04 01:43:03;;;;;;;3.97;2.10;;;15.30;49.10;;;;;;5056164;28;20453;-56
2023/06/04 01:45:31;;;;;;;2.10;1.90;;;15.30;49.30;;;;;;5055909;28;20484;-56
2023/06/04 01:47:57;;;;;;;1.80;1.50;;;15.30;49.30;;;;;;5056065;28;20453;-56
2023/06/04 01:50:24;;;;;;;3.43;2.03;;;15.30;49.50;;;;;;5055943;28;20450;-56
2023/06/04 01:52:52;;;;;;;2.07;1.87;;;15.30;49.50;;;;;;5055905;28;20858;-56
2023/06/04 01:55:19;;;;;;;2.53;2.33;;;15.20;49.60;;;;;;5055884;28;20537;-56
2023/06/04 01:57:48;;;;;;;2.77;2.10;;;15.20;49.70;;;;;;5055842;28;20480;-56
2023/06/04 02:00:15;;;;;;;1.90;1.80;;;15.20;49.90;;;;;;5055784;28;20481;-56
2023/06/04 02:02:43;;;;;;;4.87;1.80;;;15.20;49.90;;;;;;5055419;28;20984;-56
2023/06/04 02:05:10;;;;;;;4.70;2.47;;;15.20;49.60;;;;;;5055579;28;20499;-56
2023/06/04 02:07:38;;;;;;;3.30;2.00;;;15.10;49.50;;;;;;5055680;28;20454;-56
2023/06/04 02:10:08;;;;;;;3.10;2.10;;;15.20;49.60;;;;;;5055716;28;20456;-56
2023/06/04 02:12:37;;;;;;;3.30;2.10;;;15.10;49.80;;;;;;5055178;28;20508;-56
2023/06/04 02:15:06;;;;;;;3.07;2.30;;;15.10;50.00;;;;;;5055229;28;20449;-56
2023/06/04 02:17:32;;;;;;;2.20;1.80;;;15.10;49.90;;;;;;5055411;28;20492;-56
2023/06/04 02:20:00;;;;;;;1.97;1.87;;;15.10;49.60;;;;;;5055070;28;20484;-56
2023/06/04 02:22:27;;;;;;;3.00;2.07;;;15.10;49.70;;;;;;5055317;28;20453;-56
2023/06/04 02:24:53;;;;;;;3.47;1.90;;;15.10;49.50;;;;;;5055344;28;20442;-56
2023/06/04 02:27:22;;;;;;;2.40;2.00;;;15.10;49.60;;;;;;5055215;28;20535;-56
2023/06/04 02:29:48;;;;;;;1.80;1.70;;;15.20;49.90;;;;;;5055225;28;20456;-56
2023/06/04 02:32:15;;;;;;;2.63;2.43;;;15.10;49.90;;;;;;5055360;28;20453;-56
2023/06/04 02:34:42;;;;;;;3.03;2.10;;;15.10;50.00;;;;;;5054816;28;20477;-56
2023/06/04 02:37:09;;;;;;;2.20;2.00;;;15.00;50.10;;;;;;5055279;28;20462;-56
2023/06/04 02:39:36;;;;;;;1.97;1.87;;;15.00;50.20;;;;;;5054760;28;21042;-56
2023/06/04 02:42:03;;;;;;;2.13;2.00;;;14.90;50.10;;;;;;5055031;28;20446;-56
2023/06/04 02:44:31;;;;;;;2.27;2.07;;;15.00;50.10;;;;;;5054343;28;20951;-56
2023/06/04 02:46:57;;;;;;;2.43;2.00;;;14.90;50.00;;;;;;5054486;28;20888;-56
2023/06/04 02:49:24;;;;;;;5.70;2.20;;;14.90;50.50;;;;;;5054863;28;20484;-56
2023/06/04 02:51:51;;;;;;;3.10;2.13;;;14.90;50.70;;;;;;5054564;28;21017;-56
2023/06/04 02:54:18;;;;;;;3.23;2.27;;;14.80;50.90;;;;;;5054788;28;20454;-56
2023/06/04 02:56:45;;;;;;;4.00;2.23;;;14.80;51.00;;;;;;5054684;28;20495;-56
2023/06/04 02:59:13;;;;;;;2.20;2.00;;;14.80;51.20;;;;;;5054648;28;20453;-56
2023/06/04 03:01:42;;;;;;;3.20;2.20;;;14.70;51.20;;;;;;5054624;28;20829;-56
2023/06/04 03:04:10;;;;;;;3.73;2.40;;;14.60;51.10;;;;;;5054571;28;20488;-56
2023/06/04 03:06:38;;;;;;;3.47;2.03;;;14.70;51.10;;;;;;5054365;28;20927;-56
2023/06/04 03:09:06;;;;;;;3.50;2.53;;;14.60;51.10;;;;;;5054550;28;20469;-56
2023/06/04 03:11:33;;;;;;;4.40;2.27;;;14.60;50.80;;;;;;5054262;28;20466;-56
2023/06/04 03:14:00;;;;;;;2.40;2.20;;;14.60;50.90;;;;;;5054953;28;20518;-56
2023/06/04 03:16:27;;;;;;;2.13;1.90;;;14.60;51.10;;;;;;5054216;28;20473;-56
2023/06/04 03:18:55;;;;;;;3.40;2.20;;;14.60;51.60;;;;;;5054276;28;20449;-56
2023/06/04 03:21:21;;;;;;;1.97;1.83;;;14.60;51.80;;;;;;5054246;28;20472;-56
2023/06/04 03:23:48;;;;;;;4.53;2.90;;;14.50;51.80;;;;;;5054265;28;20468;-56
2023/06/04 03:26:15;;;;;;;2.83;2.50;;;14.50;51.80;;;;;;5054016;28;20481;-56
2023/06/04 03:28:42;;;;;;;2.30;2.10;;;14.50;52.20;;;;;;5053774;28;20944;-56
2023/06/04 03:31:08;;;;;;;2.07;1.87;;;14.50;52.30;;;;;;5054114;28;20506;-56
2023/06/04 03:33:35;;;;;;;2.87;2.67;;;14.50;52.50;;;;;;5054032;28;20453;-56
2023/06/04 03:36:03;;;;;;;4.63;2.67;;;14.40;52.40;;;;;;5054051;28;20465;-56
2023/06/04 03:38:30;;;;;;;2.17;1.67;;;14.40;52.40;;;;;;5053926;28;20465;-56
2023/06/04 03:40:57;;;;;;;2.43;2.23;;;14.40;52.50;;;;;;5053948;28;20884;-56
2023/06/04 03:43:23;;;;;;;2.20;1.83;;;14.40;52.40;;;;;;5054663;28;20829;-56
2023/06/04 03:45:50;;;;;;;2.63;1.60;;;14.40;52.40;;;;;;5053695;28;20471;-56
2023/06/04 03:48:17;;;;;;;2.57;2.13;;;14.40;52.60;;;;;;5053766;28;20453;-56
2023/06/04 03:50:45;;;;;;;2.33;2.13;;;14.40;53.00;;;;;;5053681;28;20454;-56
2023/06/04 03:53:14;;;;;;;3.20;2.43;;;14.40;53.10;;;;;;5053737;28;20556;-56
2023/06/04 03:55:40;;;;;;;2.40;2.20;;;14.40;53.20;;;;;;5052996;28;20466;-56
2023/06/04 03:58:09;;;;;;;2.40;2.13;;;14.40;53.10;;;;;;5053592;28;20480;-56
2023/06/04 04:00:35;;;;;;;2.23;2.10;;;14.40;53.30;;;;;;5053265;28;20484;-56
2023/06/04 04:03:02;;;;;;;3.33;2.20;;;14.40;53.50;;;;;;5053568;28;20850;-56
2023/06/04 04:05:29;;;;;;;4.40;2.40;;;14.40;53.50;;;;;;5053453;28;20545;-56
2023/06/04 04:07:56;;;;;;;4.33;2.20;;;14.50;53.80;;;;;;5053371;28;20492;-56
2023/06/04 04:10:24;;;;;;;2.30;2.10;;;14.50;53.80;;;;;;5053388;28;20453;-56
2023/06/04 04:12:51;;;;;;;5.00;2.40;;;14.50;53.80;;;;;;5052934;28;20845;-56
2023/06/04 04:15:19;;;;;;;2.60;2.40;;;14.60;54.20;;;;;;5053573;28;20441;-56
2023/06/04 04:17:45;;;;;;;3.80;2.20;;;14.60;54.30;;;;;;5053427;28;20445;-56
2023/06/04 04:20:12;;;;;;;2.10;1.90;;;14.60;54.40;;;;;;5053281;28;20441;-56
2023/06/04 04:22:41;;;;;;;2.00;1.80;;;14.60;54.50;;;;;;5053264;28;20453;-56
2023/06/04 04:25:09;;;;;;;4.10;1.90;;;14.60;54.70;;;;;;5053105;28;20983;-56
2023/06/04 04:27:40;;;;;;;2.53;2.23;;;14.70;54.80;;;;;;5053101;28;20589;-56
2023/06/04 04:30:08;;;;;;;2.90;1.93;;;14.70;55.00;;;;;;5053343;28;20466;-56
2023/06/04 04:32:38;;;;;;;2.47;2.27;;;14.70;55.30;;;;;;5053221;28;20449;-56
2023/06/04 04:35:07;;;;;;;2.10;1.90;;;14.70;55.30;;;;;;5052932;28;20438;-56
2023/06/04 04:37:38;;;;;;;3.20;1.97;;;14.70;55.50;;;;;;5053077;28;20551;-56
2023/06/04 04:40:09;;;;;;;3.13;1.90;;;14.80;55.80;;;;;;5053221;28;20433;-56
2023/06/04 04:42:37;;;;;;;5.07;2.13;;;14.80;56.10;;;;;;5053188;28;20430;-56
2023/06/04 04:45:05;;;;;;;3.70;2.07;;;14.80;56.50;;;;;;5053163;28;20441;-56
2023/06/04 04:47:32;;;;;;;2.60;2.33;;;14.80;56.40;;;;;;5052914;28;20485;-56
2023/06/04 04:49:59;;;;;;;3.37;2.47;;;14.80;56.50;;;;;;5053138;28;20453;-56
2023/06/04 04:52:25;;;;;;;2.60;2.30;;;14.80;56.60;;;;;;5053075;28;20452;-56
2023/06/04 04:54:55;;;;;;;3.07;2.20;;;14.80;56.80;;;;;;5053349;28;20441;-56
2023/06/04 04:57:22;;;;;;;4.10;2.30;;;14.80;57.20;;;;;;5052947;28;20557;-56
2023/06/04 04:59:50;;;;;;;2.40;2.20;;;14.90;57.50;;;;;;5052955;28;20456;-56
2023/06/04 05:02:17;;;;;;;5.00;2.33;;;14.90;57.30;;;;;;5053007;28;20445;-56
2023/06/04 05:04:43;;;;;;;2.87;2.30;;;14.90;57.70;;;;;;5053123;28;20449;-56
2023/06/04 05:07:10;;;;;;;3.60;2.27;;;14.90;57.70;;;;;;5055607;28;20536;-56
2023/06/04 05:09:37;;;;;;;3.53;2.13;;;15.00;58.10;;;;;;5056572;28;20825;-56
2023/06/04 05:12:04;;;;;;;4.80;2.20;;;15.00;58.50;;;;;;5056771;28;20461;-56
2023/06/04 05:14:31;;;;;;;4.40;2.33;;;15.10;58.10;;;;;;5056809;28;20449;-56
2023/06/04 05:16:59;;;;;;;3.07;2.50;;;15.10;58.50;;;;;;5056711;28;20465;-56
2023/06/04 05:19:26;;;;;;;3.23;2.30;;;15.10;58.50;;;;;;5056286;28;20926;-56
2023/06/04 05:21:53;;;;;;;4.50;2.50;;;15.20;58.80;;;;;;5056307;28;20970;-56
2023/06/04 05:24:20;;;;;;;3.10;2.87;;;15.20;58.80;;;;;;5056522;28;20485;-56
2023/06/04 05:26:48;;;;;;;3.67;2.10;;;15.30;58.20;;;;;;5056419;28;20507;-56
2023/06/04 05:29:15;;;;;;;3.20;2.20;;;15.40;58.40;;;;;;5056443;28;20854;-56
2023/06/04 05:31:42;;;;;;;2.37;2.17;;;15.40;58.00;;;;;;5056377;28;20885;-56
2023/06/04 05:34:11;;;;;;;3.00;2.20;;;15.50;58.20;;;;;;5056384;28;20449;-56
2023/06/04 05:36:37;;;;;;;3.90;2.07;;;15.50;58.30;;;;;;5056229;28;20466;-56
2023/06/04 05:39:04;;;;;;;5.50;2.50;;;15.60;58.40;;;;;;5056242;28;20445;-56
2023/06/04 05:41:31;;;;;;;2.43;2.17;;;15.70;58.10;;;;;;5056154;28;20450;-56
2023/06/04 05:43:57;;;;;;;3.90;3.03;;;15.70;58.20;;;;;;5056180;28;20456;-56
2023/06/04 05:46:24;;;;;;;3.07;2.10;;;15.80;58.40;;;;;;5055983;28;20472;-56
2023/06/04 05:48:51;;;;;;;5.40;2.37;;;15.80;58.50;;;;;;5056001;28;20449;-56
2023/06/04 05:51:19;;;;;;;4.30;2.57;;;16.00;58.30;;;;;;5056097;28;20532;-56
2023/06/04 05:53:46;;;;;;;2.50;2.13;;;16.00;58.00;;;;;;5055985;28;20878;-56
2023/06/04 05:56:13;;;;;;;3.10;2.10;;;16.10;58.10;;;;;;5055853;28;20473;-56
2023/06/04 05:58:40;;;;;;;3.23;1.93;;;16.20;56.90;;;;;;5055951;28;20456;-56
2023/06/04 06:01:07;;;;;;;1.97;1.83;;;16.30;56.70;;;;;;5055886;28;20438;-56
2023/06/04 06:03:34;;;;;;;3.60;1.80;;;16.40;56.90;;;;;;5055488;28;20956;-56
2023/06/04 06:06:01;;;;;;;3.10;2.23;;;16.50;56.90;;;;;;5055470;28;20987;-56
2023/06/04 06:08:29;;;;;;;5.80;3.07;;;16.70;56.60;;;;;;5055576;28;20538;-56
2023/06/04 06:10:56;;;;;;;3.53;2.27;;;16.80;55.80;;;;;;5055592;28;20497;-56
2023/06/04 06:13:23;;;;;;;3.03;2.40;;;16.90;55.10;;;;;;5055425;28;20936;-56
2023/06/04 06:15:49;;;;;;;3.30;2.50;;;17.00;54.70;;;;;;5055612;28;20819;-56
2023/06/04 06:18:16;;;;;;;2.57;2.00;;;17.10;54.80;;;;;;5054869;28;20468;-56
2023/06/04 06:20:43;;;;;;;2.50;1.73;;;17.20;54.80;;;;;;5055151;28;20457;-56
2023/06/04 06:23:09;;;;;;;3.50;2.30;;;17.30;54.50;;;;;;5055697;28;20857;-56
2023/06/04 06:25:40;;;;;;;2.60;2.20;;;17.50;54.50;;;;;;5056674;28;20480;-56
2023/06/04 06:28:06;;;;;;;3.20;1.90;;;17.60;53.90;;;;;;5057571;28;20557;-56
2023/06/04 06:30:33;;;;;;;3.63;2.17;;;17.70;53.50;;;;;;5055198;28;20442;-56
2023/06/04 06:33:00;;;;;;;3.57;2.67;;;17.90;53.50;;;;;;5055206;28;20453;-56
2023/06/04 06:35:27;;;;;;;2.93;2.33;;;18.00;53.40;;;;;;5055084;28;20532;-56
2023/06/04 06:37:53;;;;;;;2.23;1.80;;;18.20;52.40;;;;;;5055150;28;20441;-56
2023/06/04 06:40:20;;;;;;;2.97;2.30;;;18.40;52.00;;;;;;5055046;28;20449;-56
2023/06/04 06:42:51;;;;;;;5.30;2.03;;;18.50;51.90;;;;;;5054700;28;20843;-56
2023/06/04 06:45:18;;;;;;;2.50;2.30;;;18.70;51.30;;;;;;5055622;28;20499;-56
2023/06/04 06:47:45;;;;;;;3.60;1.93;;;18.90;51.00;;;;;;5055006;28;20478;-56
2023/06/04 06:50:12;;;;;;;2.17;1.70;;;19.10;50.50;;;;;;5054849;28;20449;-56
2023/06/04 06:52:39;;;;;;;2.53;1.80;;;19.20;49.50;;;;;;5054954;28;20854;-56
2023/06/04 06:55:06;;;;;;;2.47;2.00;;;19.40;49.40;;;;;;5054585;28;20963;-56
2023/06/04 06:57:34;;;;;;;1.90;1.60;;;19.60;49.50;;;;;;5054795;28;20461;-56
2023/06/04 07:00:03;;;;;;;2.07;1.87;;;19.70;49.30;;;;;;5054746;28;20488;-56
2023/06/04 07:02:30;;;;;;;2.40;1.83;;;20.00;48.80;;;;;;5055043;28;20449;-56
2023/06/04 07:04:57;;;;;;;3.00;1.87;;;20.10;47.80;;;;;;5054733;28;20450;-56
2023/06/04 07:07:24;;;;;;;2.33;1.70;;;20.30;47.00;;;;;;5054547;28;20884;-56
2023/06/04 07:09:51;;;;;;;1.90;1.63;;;20.50;46.60;;;;;;5054484;28;21046;-56
2023/06/04 07:12:18;;;;;;;1.63;1.40;;;20.70;46.10;;;;;;5054532;28;20469;-56
2023/06/04 07:14:45;;;;;;;1.50;1.40;;;20.90;45.80;;;;;;5054436;28;20445;-55
2023/06/04 07:17:13;;;;;;;6.20;1.83;;;21.10;45.00;;;;;;5054363;28;20458;-56
2023/06/04 07:19:39;;;;;;;2.23;1.70;;;21.40;44.30;;;;;;5054270;28;20449;-56
2023/06/04 07:22:06;;;;;;;2.27;1.67;;;21.60;43.90;;;;;;5054225;28;20446;-56
2023/06/04 07:24:33;;;;;;;2.90;1.87;;;21.80;43.90;;;;;;5054125;28;20507;-56
2023/06/04 07:27:00;;;;;;;3.63;1.63;;;22.00;43.20;;;;;;5054089;28;20473;-56
2023/06/04 07:29:26;;;;;;;2.00;1.23;;;22.30;42.50;;;;;;5053046;28;20947;-56
2023/06/04 07:31:53;;;;;;;1.90;1.70;;;22.50;42.40;;;;;;5053796;28;20952;-56
2023/06/04 07:34:21;;;;;;;1.73;1.53;;;22.70;41.20;;;;;;5054102;28;20477;-56
2023/06/04 07:36:48;;;;;;;1.93;1.33;;;22.80;41.20;;;;;;5053926;28;20500;-56
2023/06/04 07:39:15;;;;;;;10.23;1.67;;;23.00;40.70;;;;;;5053865;28;20454;-56
2023/06/04 07:41:41;;;;;;;3.03;1.73;;;23.20;40.50;;;;;;5053960;28;20442;-56
2023/06/04 07:44:08;;;;;;;1.83;1.43;;;23.50;40.70;;;;;;5053913;28;20446;-56
2023/06/04 07:46:35;;;;;;;1.73;1.43;;;23.60;40.00;;;;;;5053761;28;20472;-56
2023/06/04 07:49:01;;;;;;;2.27;1.90;;;23.80;39.30;;;;;;5053663;28;20485;-56
2023/06/04 07:51:29;;;;;;;1.60;1.50;;;24.00;38.30;;;;;;5054024;28;20449;-56
2023/06/04 07:53:56;;;;;;;2.67;1.77;;;24.20;37.80;;;;;;5053846;28;20448;-56
2023/06/04 07:56:23;;;;;;;1.60;1.43;;;24.40;37.70;;;;;;5053574;28;20469;-56
2023/06/04 07:58:50;;;;;;;3.00;1.80;;;24.60;37.00;;;;;;5053610;28;20453;-56
2023/06/04 08:01:16;;;;;;;2.17;1.47;;;24.80;36.80;;;;;;5053631;28;20441;-55
2023/06/04 08:03:43;;;;;;;1.80;1.60;;;25.00;36.10;;;;;;5053650;28;20437;-56
2023/06/04 08:06:10;;;;;;;3.50;1.90;;;25.10;35.70;;;;;;5053579;28;20470;-57
2023/06/04 08:08:38;;;;;;;2.40;1.67;;;25.30;35.60;;;;;;5053148;28;21006;-56
2023/06/04 08:11:05;;;;;;;2.23;1.60;;;25.50;36.10;;;;;;5053315;28;20458;-56
2023/06/04 08:13:32;;;;;;;2.80;1.90;;;25.70;35.40;;;;;;5053446;28;20472;-56
2023/06/04 08:15:58;;;;;;;3.13;2.00;;;25.90;34.70;;;;;;5053230;28;20469;-56
2023/06/04 08:18:25;;;;;;;3.20;1.80;;;26.20;34.70;;;;;;5053141;28;21005;-56
2023/06/04 08:20:52;;;;;;;2.33;1.80;;;26.40;34.90;;;;;;5053263;28;20857;-56
2023/06/04 08:23:18;;;;;;;2.50;1.90;;;26.70;34.40;;;;;;5052977;28;20461;-56
2023/06/04 08:25:47;;;;;;;1.70;1.50;;;26.80;34.10;;;;;;5053303;28;20472;-56
2023/06/04 08:28:15;;;;;;;6.93;2.00;;;27.00;32.60;;;;;;5053128;28;20485;-56
2023/06/04 08:30:42;;;;;;;3.20;2.07;;;27.20;32.20;;;;;;5053086;28;20449;-56
2023/06/04 08:33:09;;;;;;;2.33;2.00;;;27.30;32.20;;;;;;5053169;28;20482;-56
2023/06/04 08:35:37;;;;;;;2.63;1.67;;;27.50;32.70;;;;;;5053124;28;20481;-56
2023/06/04 08:38:03;;;;;;;3.50;2.10;;;27.70;32.70;;;;;;5053057;28;20445;-56
2023/06/04 08:40:30;;;;;;;3.30;2.07;;;27.90;31.90;;;;;;5052806;28;20939;-56
2023/06/04 08:42:59;;;;;;;1.80;1.63;;;28.10;30.40;;;;;;5057597;28;20523;-56
2023/06/04 08:45:26;;;;;;;1.90;1.80;;;28.30;30.10;;;;;;5057371;28;20507;-56
2023/06/04 08:47:54;;;;;;;1.63;1.50;;;28.40;29.70;;;;;;5056628;28;20901;-56
2023/06/04 08:50:23;;;;;;;2.53;2.03;;;28.50;29.70;;;;;;5057142;28;20453;-56
2023/06/04 08:52:53;;;;;;;1.73;1.63;;;28.60;29.50;;;;;;5057064;28;20484;-56
2023/06/04 08:55:19;;;;;;;2.10;1.90;;;28.70;29.40;;;;;;5057129;28;20458;-56
2023/06/04 08:57:47;;;;;;;3.90;2.13;;;28.90;28.80;;;;;;5057034;28;20472;-56
2023/06/04 09:00:18;;;;;;;2.80;1.87;;;29.00;28.40;;;;;;5057950;28;20507;-56
2023/06/04 09:02:46;;;;;;;3.03;2.40;;;29.10;28.50;;;;;;5056971;28;20441;-56
2023/06/04 09:05:20;;;;;;;4.30;2.47;;;29.20;27.70;;;;;;5056887;28;20445;-56
2023/06/04 09:07:47;;;;;;;5.47;2.27;;;29.20;27.80;;;;;;5056831;28;20466;-56
2023/06/04 09:10:19;;;;;;;3.10;1.90;;;29.40;28.00;;;;;;5057939;28;20559;-56
2023/06/04 09:12:48;;;;;;;2.17;1.80;;;29.50;27.20;;;;;;5056434;28;20461;-56
2023/06/04 09:15:16;;;;;;;5.50;1.80;;;29.50;26.60;;;;;;5056421;28;20472;-56
2023/06/04 09:17:43;;;;;;;3.57;2.40;;;29.70;27.20;;;;;;5056588;28;20452;-56
2023/06/04 09:20:19;;;;;;;2.13;2.03;;;29.80;27.10;;;;;;5056771;28;20452;-56
2023/06/04 09:22:46;;;;;;;5.17;2.20;;;30.00;26.70;;;;;;5056443;28;20947;-56
2023/06/04 09:25:21;;;;;;;2.07;1.50;;;30.10;25.80;;;;;;5056640;28;20451;-56
2023/06/04 09:27:47;;;;;;;3.03;1.77;;;30.20;25.30;;;;;;5056223;28;20919;-56
2023/06/04 09:30:16;;;;;;;4.10;2.00;;;30.20;25.10;;;;;;5056421;28;20452;-56
2023/06/04 09:32:42;;;;;;;1.73;1.63;;;30.30;25.30;;;;;;5056367;28;20820;-56
2023/06/04 09:35:11;;;;;;;8.23;2.47;;;30.60;25.80;;;;;;5056379;28;20460;-56
2023/06/04 09:37:38;;;;;;;4.17;2.10;;;30.80;24.30;;;;;;5056460;28;20465;-56
2023/06/04 09:40:06;;;;;;;1.83;1.70;;;30.90;24.30;;;;;;5056026;28;20980;-56
2023/06/04 09:42:43;;;;;;;2.37;1.80;;;31.10;24.80;;;;;;5056217;28;20531;-56
2023/06/04 09:45:10;;;;;;;5.30;2.00;;;31.30;24.50;;;;;;5056213;28;20437;-57
2023/06/04 09:47:42;;;;;;;2.27;1.97;;;31.60;24.60;;;;;;5055915;28;20564;-57
2023/06/04 09:50:09;;;;;;;3.10;1.90;;;31.90;24.00;;;;;;5056053;28;20838;-57
2023/06/04 09:52:37;;;;;;;2.70;1.70;;;32.10;23.40;;;;;;5054968;28;20533;-57
2023/06/04 09:55:04;;;;;;;3.20;2.27;;;32.30;24.10;;;;;;5056094;28;20449;-56
2023/06/04 09:57:35;;;;;;;6.53;2.10;;;32.50;23.40;;;;;;5055752;28;20496;-56
2023/06/04 10:00:08;;;;;;;7.03;2.80;;;32.70;23.30;;;;;;5055844;28;20484;-56
2023/06/04 10:02:34;;;;;;;7.90;2.43;;;33.00;23.60;;;;;;5056098;28;20438;-56
2023/06/04 10:05:04;;;;;;;3.97;2.30;;;33.30;23.80;;;;;;5055767;28;20482;-56
2023/06/04 10:07:31;;;;;;;5.20;2.10;;;33.60;23.40;;;;;;5055646;28;20487;-56
2023/06/04 10:09:58;;;;;;;2.20;2.00;;;33.90;23.10;;;;;;5055408;28;20484;-56
2023/06/04 10:12:30;;;;;;;3.27;1.93;;;34.20;22.30;;;;;;5055223;28;20504;-56
2023/06/04 10:15:00;;;;;;;2.47;2.23;;;34.60;21.60;;;;;;5055648;28;20802;-56
2023/06/04 10:17:28;;;;;;;4.00;1.93;;;34.90;20.60;;;;;;5055496;28;20469;-56
2023/06/04 10:19:57;;;;;;;3.13;1.97;;;35.20;20.50;;;;;;5055466;28;20861;-56
2023/06/04 10:22:25;;;;;;;2.43;2.20;;;35.50;20.70;;;;;;5055451;28;20452;-56
2023/06/04 10:24:52;;;;;;;2.97;1.90;;;35.80;20.50;;;;;;5055400;28;20449;-56
2023/06/04 10:27:20;;;;;;;6.00;2.37;;;36.20;20.10;;;;;;5055330;28;20469;-56
2023/06/04 10:29:47;;;;;;;2.57;2.37;;;36.50;20.90;;;;;;5055077;28;20588;-56
2023/06/04 10:32:13;;;;;;;2.13;1.70;;;36.90;20.10;;;;;;5055581;28;20206;-56
2023/06/04 10:34:41;;;;;;;8.82;2.10;;;37.20;19.50;;;;;;5055263;28;20213;-56
2023/06/04 10:37:18;;;;;;;4.13;2.10;;;37.50;19.70;;;;;;5055104;28;20222;-56
2023/06/04 10:39:51;;;;;;;2.97;2.20;;;37.90;18.70;;;;;;5055376;28;20213;-56
2023/06/04 10:42:18;;;;;;;2.72;1.80;;;38.30;18.50;;;;;;5055175;28;20190;-56
2023/06/04 10:44:48;;;;;;;2.45;2.25;;;38.70;18.20;;;;;;5055095;28;20206;-55
2023/06/04 10:47:20;;;;;;;2.72;2.30;;;39.10;17.50;;;;;;5055191;28;20222;-56
2023/06/04 10:49:47;;;;;;;4.22;1.90;;;39.50;17.40;;;;;;5054643;28;20654;-56
2023/06/04 10:52:13;;;;;;;3.47;2.05;;;39.90;17.10;;;;;;5055036;28;20291;-56
2023/06/04 10:54:41;;;;;;;5.25;2.40;;;40.40;16.20;;;;;;5054945;28;20210;-56
2023/06/04 10:57:13;;;;;;;8.50;2.17;;;40.80;16.40;;;;;;5054898;28;20223;-56
2023/06/04 10:59:40;;;;;;;3.63;2.20;;;41.30;16.10;;;;;;5054881;28;20185;-56
2023/06/04 11:02:07;;;;;;;1.90;1.80;;;41.70;16.10;;;;;;5054826;28;20230;-56
2023/06/04 11:04:34;;;;;;;4.70;2.10;;;41.90;16.00;;;;;;5054160;28;20726;-56
2023/06/04 11:07:03;;;;;;;2.38;2.10;;;42.20;15.20;;;;;;5054656;28;20222;-57
2023/06/04 11:09:30;;;;;;;1.85;1.75;;;42.30;15.00;;;;;;5054755;28;20214;-57
2023/06/04 11:11:58;;;;;;;2.40;2.20;;;42.50;14.40;;;;;;5054332;28;20234;-57
2023/06/04 11:14:26;;;;;;;3.45;1.88;;;42.80;14.10;;;;;;5054570;28;20230;-57
2023/06/04 11:16:53;;;;;;;1.98;1.88;;;43.10;13.90;;;;;;5054604;28;20589;-57
2023/06/04 11:19:20;;;;;;;1.70;1.60;;;43.40;14.50;;;;;;5054549;28;20202;-57
2023/06/04 11:21:46;;;;;;;2.95;2.03;;;43.70;14.00;;;;;;5054452;28;20209;-57
2023/06/04 11:24:13;;;;;;;2.95;1.92;;;44.00;13.70;;;;;;5054322;28;20206;-57
2023/06/04 11:26:40;;;;;;;3.80;1.85;;;44.20;13.70;;;;;;5054125;28;20226;-57
2023/06/04 11:29:08;;;;;;;2.17;1.90;;;44.40;13.50;;;;;;5054069;28;20253;-57
2023/06/04 11:31:43;;;;;;;5.22;1.90;;;44.50;13.00;;;;;;5054112;28;20203;-57
2023/06/04 11:34:11;;;;;;;2.17;1.98;;;44.70;13.70;;;;;;5054161;28;20271;-57
2023/06/04 11:36:38;;;;;;;3.60;1.55;;;44.80;13.90;;;;;;5053925;28;20218;-57
2023/06/04 11:39:07;;;;;;;2.00;1.80;;;44.90;13.30;;;;;;5054010;28;20202;-57
2023/06/04 11:41:34;;;;;;;3.33;1.98;;;45.10;13.00;;;;;;5053649;28;20684;-57
2023/06/04 11:44:04;;;;;;;6.57;2.17;;;45.20;12.30;;;;;;5053674;28;20242;-57
2023/06/04 11:46:31;;;;;;;4.45;1.70;;;45.10;13.00;;;;;;5053795;28;20275;-57
2023/06/04 11:48:59;;;;;;;3.13;1.90;;;45.30;12.50;;;;;;5053841;28;20226;-57
2023/06/04 11:51:26;;;;;;;4.97;1.92;;;45.40;12.60;;;;;;5053820;28;20616;-57
2023/06/04 11:53:54;;;;;;;2.90;1.80;;;45.40;12.20;;;;;;5053461;28;20672;-57
2023/06/04 11:56:21;;;;;;;3.00;1.90;;;45.50;12.30;;;;;;5053583;28;20313;-57
2023/06/04 11:58:48;;;;;;;2.10;1.80;;;45.70;12.20;;;;;;5053311;28;20695;-57
2023/06/04 12:01:15;;;;;;;2.20;1.95;;;46.00;12.70;;;;;;5053662;28;20206;-57
2023/06/04 12:03:43;;;;;;;2.65;1.70;;;46.20;12.40;;;;;;5053776;28;20206;-57
2023/06/04 12:06:13;;;;;;;3.47;1.70;;;46.40;12.40;;;;;;5052835;28;20219;-57
2023/06/04 12:08:48;;;;;;;2.00;1.80;;;46.60;12.30;;;;;;5053419;28;20237;-57
2023/06/04 12:11:30;;;;;;;3.42;1.55;;;46.80;11.90;;;;;;5053293;28;20214;-57
2023/06/04 12:13:59;;;;;;;3.58;1.70;;;47.00;11.60;;;;;;5053783;28;20261;-57
2023/06/04 12:16:26;;;;;;;3.58;2.00;;;47.10;11.40;;;;;;5052414;28;20636;-57
2023/06/04 12:19:04;;;;;;;2.97;1.60;;;47.20;11.30;;;;;;5053435;28;20201;-57
2023/06/04 12:21:32;;;;;;;3.50;1.80;;;47.40;11.00;;;;;;5053305;28;20202;-57
2023/06/04 12:24:07;;;;;;;2.15;1.90;;;47.50;10.50;;;;;;5053053;28;20694;-57
2023/06/04 12:26:37;;;;;;;5.82;2.00;;;47.70;10.80;;;;;;5053337;28;20249;-57
2023/06/04 12:29:10;;;;;;;1.65;1.40;;;47.80;10.90;;;;;;5052988;28;20716;-57
2023/06/04 12:31:37;;;;;;;2.38;1.70;;;48.00;10.70;;;;;;5053453;28;20222;-57
2023/06/04 12:34:03;;;;;;;2.33;1.52;;;48.20;10.80;;;;;;5053623;28;20202;-57
2023/06/04 12:36:33;;;;;;;2.90;1.70;;;48.30;10.80;;;;;;5053282;28;20226;-57
2023/06/04 12:39:01;;;;;;;1.95;1.80;;;48.40;10.50;;;;;;5053475;28;20201;-57
2023/06/04 12:41:28;;;;;;;1.90;1.70;;;48.40;10.00;;;;;;5053270;28;20203;-57
2023/06/04 12:43:55;;;;;;;5.07;1.70;;;48.50;10.20;;;;;;5053427;28;20215;-57
2023/06/04 12:46:22;;;;;;;2.28;1.50;;;48.60;10.40;;;;;;5053274;28;20226;-57
2023/06/04 12:48:49;;;;;;;2.45;2.25;;;48.70;10.00;;;;;;5053060;28;20203;-57
2023/06/04 12:51:16;;;;;;;3.75;2.40;;;48.80;9.80;;;;;;5053011;28;20211;-57